sensor_id;sensor_type;location;lat;lon;timestamp;temperature;humidity
16479;DHT22;8350;52.316;10.530;2024-03-25T00:00:39;5.30;99.90
16479;DHT22;8350;52.316;10.530;2024-03-25T00:03:09;5.30;99.90
16479;DHT22;8350;52.316;10.530;2024-03-25T00:05:37;5.30;99.90
16479;DHT22;8350;52.316;10.530;2024-03-25T00:08:04;5.30;99.90
16479;DHT22;8350;52.316;10.530;2024-03-25T00:10:32;5.30;99.90
16479;DHT22;8350;52.316;10.530;2024-03-25T00:12:59;5.20;99.90
16479;DHT22;8350;52.316;10.530;2024-03-25T00:15:26;5.20;99.90
16479;DHT22;8350;52.316;10.530;2024-03-25T00:17:55;5.20;99.90
16479;DHT22;8350;52.316;10.530;2024-03-25T00:20:23;5.20;99.90
16479;DHT22;8350;52.316;10.530;2024-03-25T00:22:50;5.20;99.90
16479;DHT22;8350;52.316;10.530;2024-03-25T00:25:20;5.30;99.90
16479;DHT22;8350;52.316;10.530;2024-03-25T00:27:50;5.30;99.90
16479;DHT22;8350;52.316;10.530;2024-03-25T00:30:22;5.30;99.90
16479;DHT22;8350;52.316;10.530;2024-03-25T00:32:49;5.20;99.90
16479;DHT22;8350;52.316;10.530;2024-03-25T00:35:17;5.20;99.90
16479;DHT22;8350;52.316;10.530;2024-03-25T00:38:00;5.10;99.90
16479;DHT22;8350;52.316;10.530;2024-03-25T00:40:29;5.10;99.90
16479;DHT22;8350;52.316;10.530;2024-03-25T00:43:00;5.10;99.90
16479;DHT22;8350;52.316;10.530;2024-03-25T00:45:50;5.10;99.90
16479;DHT22;8350;52.316;10.530;2024-03-25T00:48:15;5.10;99.90
16479;DHT22;8350;52.316;10.530;2024-03-25T00:50:42;5.10;99.90
16479;DHT22;8350;52.316;10.530;2024-03-25T00:53:08;5.10;99.90
16479;DHT22;8350;52.316;10.530;2024-03-25T00:55:35;5.10;99.90
16479;DHT22;8350;52.316;10.530;2024-03-25T00:58:02;5.10;99.90
16479;DHT22;8350;52.316;10.530;2024-03-25T01:00:30;5.10;99.90
16479;DHT22;8350;52.316;10.530;2024-03-25T01:02:55;5.20;99.90
16479;DHT22;8350;52.316;10.530;2024-03-25T01:05:22;5.10;99.90
16479;DHT22;8350;52.316;10.530;2024-03-25T01:07:48;5.10;99.90
16479;DHT22;8350;52.316;10.530;2024-03-25T01:10:21;5.20;99.90
16479;DHT22;8350;52.316;10.530;2024-03-25T01:12:48;5.20;99.90
16479;DHT22;8350;52.316;10.530;2024-03-25T01:15:21;5.10;99.90
16479;DHT22;8350;52.316;10.530;2024-03-25T01:17:47;5.20;99.90
16479;DHT22;8350;52.316;10.530;2024-03-25T01:20:14;5.20;99.90
16479;DHT22;8350;52.316;10.530;2024-03-25T01:22:44;5.20;99.90
16479;DHT22;8350;52.316;10.530;2024-03-25T01:25:11;5.20;99.90
16479;DHT22;8350;52.316;10.530;2024-03-25T01:27:40;5.20;99.90
16479;DHT22;8350;52.316;10.530;2024-03-25T01:30:08;5.20;99.90
16479;DHT22;8350;52.316;10.530;2024-03-25T01:32:35;5.20;99.90
16479;DHT22;8350;52.316;10.530;2024-03-25T01:35:06;5.10;99.90
16479;DHT22;8350;52.316;10.530;2024-03-25T01:37:38;5.10;99.90
16479;DHT22;8350;52.316;10.530;2024-03-25T01:40:09;5.10;99.90
16479;DHT22;8350;52.316;10.530;2024-03-25T01:42:37;5.10;99.90
16479;DHT22;8350;52.316;10.530;2024-03-25T01:45:14;5.10;99.90
16479;DHT22;8350;52.316;10.530;2024-03-25T01:47:45;5.10;99.90
16479;DHT22;8350;52.316;10.530;2024-03-25T01:50:11;5.10;99.90
16479;DHT22;8350;52.316;10.530;2024-03-25T01:52:39;5.10;99.90
16479;DHT22;8350;52.316;10.530;2024-03-25T01:55:11;5.10;99.90
16479;DHT22;8350;52.316;10.530;2024-03-25T01:57:43;5.00;99.90
16479;DHT22;8350;52.316;10.530;2024-03-25T02:00:11;5.00;99.90
16479;DHT22;8350;52.316;10.530;2024-03-25T02:02:40;5.00;99.90
16479;DHT22;8350;52.316;10.530;2024-03-25T02:05:10;5.00;99.90
16479;DHT22;8350;52.316;10.530;2024-03-25T02:07:38;5.00;99.90
16479;DHT22;8350;52.316;10.530;2024-03-25T02:10:11;5.00;99.90
16479;DHT22;8350;52.316;10.530;2024-03-25T02:12:40;5.00;99.90
16479;DHT22;8350;52.316;10.530;2024-03-25T02:15:09;5.10;99.90
16479;DHT22;8350;52.316;10.530;2024-03-25T02:17:37;5.10;99.90
16479;DHT22;8350;52.316;10.530;2024-03-25T02:20:04;5.10;99.90
16479;DHT22;8350;52.316;10.530;2024-03-25T02:22:34;5.20;99.90
16479;DHT22;8350;52.316;10.530;2024-03-25T02:25:01;5.20;99.90
16479;DHT22;8350;52.316;10.530;2024-03-25T02:27:35;5.20;99.90
16479;DHT22;8350;52.316;10.530;2024-03-25T02:30:13;5.20;99.90
16479;DHT22;8350;52.316;10.530;2024-03-25T02:32:40;5.20;99.90
16479;DHT22;8350;52.316;10.530;2024-03-25T02:35:09;5.20;99.90
16479;DHT22;8350;52.316;10.530;2024-03-25T02:37:37;5.20;99.90
16479;DHT22;8350;52.316;10.530;2024-03-25T02:40:07;5.20;99.90
16479;DHT22;8350;52.316;10.530;2024-03-25T02:42:40;5.20;99.90
16479;DHT22;8350;52.316;10.530;2024-03-25T02:45:06;5.20;99.90
16479;DHT22;8350;52.316;10.530;2024-03-25T02:47:33;5.20;99.90
16479;DHT22;8350;52.316;10.530;2024-03-25T02:49:59;5.20;99.90
16479;DHT22;8350;52.316;10.530;2024-03-25T02:52:26;5.20;99.90
16479;DHT22;8350;52.316;10.530;2024-03-25T02:54:52;5.20;99.90
16479;DHT22;8350;52.316;10.530;2024-03-25T02:57:30;5.20;99.90
16479;DHT22;8350;52.316;10.530;2024-03-25T02:59:57;5.20;99.90
16479;DHT22;8350;52.316;10.530;2024-03-25T03:02:30;5.10;99.90
16479;DHT22;8350;52.316;10.530;2024-03-25T03:04:56;5.10;99.90
16479;DHT22;8350;52.316;10.530;2024-03-25T03:07:30;5.10;99.90
16479;DHT22;8350;52.316;10.530;2024-03-25T03:09:58;5.00;99.90
16479;DHT22;8350;52.316;10.530;2024-03-25T03:12:25;4.90;99.90
16479;DHT22;8350;52.316;10.530;2024-03-25T03:14:51;4.90;99.90
16479;DHT22;8350;52.316;10.530;2024-03-25T03:17:22;4.90;99.90
16479;DHT22;8350;52.316;10.530;2024-03-25T03:19:47;4.80;99.90
16479;DHT22;8350;52.316;10.530;2024-03-25T03:22:23;4.80;99.90
16479;DHT22;8350;52.316;10.530;2024-03-25T03:24:49;4.70;99.90
16479;DHT22;8350;52.316;10.530;2024-03-25T03:27:17;4.80;99.90
16479;DHT22;8350;52.316;10.530;2024-03-25T03:29:57;4.80;99.90
16479;DHT22;8350;52.316;10.530;2024-03-25T03:32:26;4.80;99.90
16479;DHT22;8350;52.316;10.530;2024-03-25T03:34:52;4.80;99.90
16479;DHT22;8350;52.316;10.530;2024-03-25T03:37:19;4.80;99.90
16479;DHT22;8350;52.316;10.530;2024-03-25T03:39:45;4.80;99.90
16479;DHT22;8350;52.316;10.530;2024-03-25T03:42:17;4.80;99.90
16479;DHT22;8350;52.316;10.530;2024-03-25T03:44:44;4.80;99.90
16479;DHT22;8350;52.316;10.530;2024-03-25T03:47:11;4.90;99.90
16479;DHT22;8350;52.316;10.530;2024-03-25T03:49:40;4.90;99.90
16479;DHT22;8350;52.316;10.530;2024-03-25T03:52:07;4.90;99.90
16479;DHT22;8350;52.316;10.530;2024-03-25T03:54:33;4.90;99.90
16479;DHT22;8350;52.316;10.530;2024-03-25T03:57:02;4.90;99.90
16479;DHT22;8350;52.316;10.530;2024-03-25T03:59:28;5.00;99.90
16479;DHT22;8350;52.316;10.530;2024-03-25T04:01:56;5.00;99.90
16479;DHT22;8350;52.316;10.530;2024-03-25T04:04:26;5.00;99.90
16479;DHT22;8350;52.316;10.530;2024-03-25T04:06:57;5.00;99.90
16479;DHT22;8350;52.316;10.530;2024-03-25T04:09:23;5.00;99.90
16479;DHT22;8350;52.316;10.530;2024-03-25T04:11:52;5.00;99.90
16479;DHT22;8350;52.316;10.530;2024-03-25T04:14:18;5.00;99.90
16479;DHT22;8350;52.316;10.530;2024-03-25T04:16:47;5.00;99.90
16479;DHT22;8350;52.316;10.530;2024-03-25T04:19:13;5.00;99.90
16479;DHT22;8350;52.316;10.530;2024-03-25T04:21:42;5.00;99.90
16479;DHT22;8350;52.316;10.530;2024-03-25T04:24:12;5.00;99.90
16479;DHT22;8350;52.316;10.530;2024-03-25T04:26:38;5.00;99.90
16479;DHT22;8350;52.316;10.530;2024-03-25T04:29:04;5.00;99.90
16479;DHT22;8350;52.316;10.530;2024-03-25T04:31:33;5.00;99.90
16479;DHT22;8350;52.316;10.530;2024-03-25T04:34:02;5.00;99.90
16479;DHT22;8350;52.316;10.530;2024-03-25T04:36:27;5.00;99.90
16479;DHT22;8350;52.316;10.530;2024-03-25T04:39:00;5.00;99.90
16479;DHT22;8350;52.316;10.530;2024-03-25T04:41:28;5.00;99.90
16479;DHT22;8350;52.316;10.530;2024-03-25T04:43:53;5.00;99.90
16479;DHT22;8350;52.316;10.530;2024-03-25T04:46:21;5.00;99.90
16479;DHT22;8350;52.316;10.530;2024-03-25T04:48:48;5.00;99.90
16479;DHT22;8350;52.316;10.530;2024-03-25T04:51:14;5.00;99.90
16479;DHT22;8350;52.316;10.530;2024-03-25T04:53:42;5.00;99.90
16479;DHT22;8350;52.316;10.530;2024-03-25T04:56:08;5.00;99.90
16479;DHT22;8350;52.316;10.530;2024-03-25T04:58:36;5.00;99.90
16479;DHT22;8350;52.316;10.530;2024-03-25T05:01:01;4.90;99.90
16479;DHT22;8350;52.316;10.530;2024-03-25T05:03:46;4.90;99.90
16479;DHT22;8350;52.316;10.530;2024-03-25T05:06:12;4.90;99.90
16479;DHT22;8350;52.316;10.530;2024-03-25T05:08:37;4.80;99.90
16479;DHT22;8350;52.316;10.530;2024-03-25T05:11:03;4.90;99.90
16479;DHT22;8350;52.316;10.530;2024-03-25T05:13:30;4.80;99.90
16479;DHT22;8350;52.316;10.530;2024-03-25T05:15:59;4.90;99.90
16479;DHT22;8350;52.316;10.530;2024-03-25T05:18:30;4.80;99.90
16479;DHT22;8350;52.316;10.530;2024-03-25T05:20:56;4.80;99.90
16479;DHT22;8350;52.316;10.530;2024-03-25T05:23:22;4.80;99.90
16479;DHT22;8350;52.316;10.530;2024-03-25T05:25:48;4.90;99.90
16479;DHT22;8350;52.316;10.530;2024-03-25T05:28:17;4.90;99.90
16479;DHT22;8350;52.316;10.530;2024-03-25T05:30:43;4.80;99.90
16479;DHT22;8350;52.316;10.530;2024-03-25T05:33:17;4.80;99.90
16479;DHT22;8350;52.316;10.530;2024-03-25T05:35:43;4.90;99.90
16479;DHT22;8350;52.316;10.530;2024-03-25T05:38:09;5.00;99.90
16479;DHT22;8350;52.316;10.530;2024-03-25T05:40:34;4.90;99.90
16479;DHT22;8350;52.316;10.530;2024-03-25T05:43:00;4.90;99.90
16479;DHT22;8350;52.316;10.530;2024-03-25T05:45:26;4.90;99.90
16479;DHT22;8350;52.316;10.530;2024-03-25T05:47:54;4.90;99.90
16479;DHT22;8350;52.316;10.530;2024-03-25T05:50:21;5.00;99.90
16479;DHT22;8350;52.316;10.530;2024-03-25T05:52:47;5.00;99.90
16479;DHT22;8350;52.316;10.530;2024-03-25T05:55:13;5.00;99.90
16479;DHT22;8350;52.316;10.530;2024-03-25T05:57:44;5.00;99.90
16479;DHT22;8350;52.316;10.530;2024-03-25T06:00:11;5.00;99.90
16479;DHT22;8350;52.316;10.530;2024-03-25T06:02:39;5.10;99.90
16479;DHT22;8350;52.316;10.530;2024-03-25T06:05:06;5.30;99.90
16479;DHT22;8350;52.316;10.530;2024-03-25T06:07:33;5.50;99.90
16479;DHT22;8350;52.316;10.530;2024-03-25T06:09:59;5.60;99.90
16479;DHT22;8350;52.316;10.530;2024-03-25T06:12:28;5.60;99.90
16479;DHT22;8350;52.316;10.530;2024-03-25T06:14:54;5.60;99.90
16479;DHT22;8350;52.316;10.530;2024-03-25T06:17:25;5.60;99.90
16479;DHT22;8350;52.316;10.530;2024-03-25T06:19:51;5.50;99.90
16479;DHT22;8350;52.316;10.530;2024-03-25T06:22:17;5.50;99.90
16479;DHT22;8350;52.316;10.530;2024-03-25T06:24:47;5.50;99.90
16479;DHT22;8350;52.316;10.530;2024-03-25T06:27:13;5.40;99.90
16479;DHT22;8350;52.316;10.530;2024-03-25T06:29:39;5.50;99.90
16479;DHT22;8350;52.316;10.530;2024-03-25T06:32:05;5.50;99.90
16479;DHT22;8350;52.316;10.530;2024-03-25T06:34:50;5.40;99.90
16479;DHT22;8350;52.316;10.530;2024-03-25T06:37:17;5.50;99.90
16479;DHT22;8350;52.316;10.530;2024-03-25T06:39:43;5.50;99.90
16479;DHT22;8350;52.316;10.530;2024-03-25T06:42:10;5.50;99.90
16479;DHT22;8350;52.316;10.530;2024-03-25T06:44:36;5.50;99.90
16479;DHT22;8350;52.316;10.530;2024-03-25T06:47:02;5.60;99.90
16479;DHT22;8350;52.316;10.530;2024-03-25T06:49:28;5.60;99.90
16479;DHT22;8350;52.316;10.530;2024-03-25T06:52:15;5.60;99.90
16479;DHT22;8350;52.316;10.530;2024-03-25T06:54:41;5.70;99.90
16479;DHT22;8350;52.316;10.530;2024-03-25T06:57:11;5.70;99.90
16479;DHT22;8350;52.316;10.530;2024-03-25T06:59:37;5.80;99.90
16479;DHT22;8350;52.316;10.530;2024-03-25T07:02:03;5.80;99.90
16479;DHT22;8350;52.316;10.530;2024-03-25T07:04:32;5.80;99.90
16479;DHT22;8350;52.316;10.530;2024-03-25T07:07:00;5.80;99.90
16479;DHT22;8350;52.316;10.530;2024-03-25T07:09:26;5.90;99.90
16479;DHT22;8350;52.316;10.530;2024-03-25T07:12:00;5.90;99.90
16479;DHT22;8350;52.316;10.530;2024-03-25T07:14:46;5.90;99.90
16479;DHT22;8350;52.316;10.530;2024-03-25T07:17:15;5.90;99.90
16479;DHT22;8350;52.316;10.530;2024-03-25T07:19:47;6.00;99.90
16479;DHT22;8350;52.316;10.530;2024-03-25T07:22:13;6.10;99.90
16479;DHT22;8350;52.316;10.530;2024-03-25T07:24:39;6.10;99.90
16479;DHT22;8350;52.316;10.530;2024-03-25T07:27:05;6.10;99.90
16479;DHT22;8350;52.316;10.530;2024-03-25T07:29:31;6.10;99.90
16479;DHT22;8350;52.316;10.530;2024-03-25T07:32:00;6.20;99.90
16479;DHT22;8350;52.316;10.530;2024-03-25T07:34:26;6.10;99.90
16479;DHT22;8350;52.316;10.530;2024-03-25T07:36:57;6.20;99.90
16479;DHT22;8350;52.316;10.530;2024-03-25T07:39:25;6.20;99.90
16479;DHT22;8350;52.316;10.530;2024-03-25T07:41:51;6.20;99.90
16479;DHT22;8350;52.316;10.530;2024-03-25T07:44:20;6.30;99.90
16479;DHT22;8350;52.316;10.530;2024-03-25T07:46:46;6.30;96.70
16479;DHT22;8350;52.316;10.530;2024-03-25T07:49:14;6.30;1.00
16479;DHT22;8350;52.316;10.530;2024-03-25T07:51:40;6.30;1.00
16479;DHT22;8350;52.316;10.530;2024-03-25T07:54:06;6.30;1.00
16479;DHT22;8350;52.316;10.530;2024-03-25T07:56:38;6.30;1.00
16479;DHT22;8350;52.316;10.530;2024-03-25T07:59:05;6.30;1.00
16479;DHT22;8350;52.316;10.530;2024-03-25T08:01:31;6.40;1.00
16479;DHT22;8350;52.316;10.530;2024-03-25T08:03:59;6.50;1.00
16479;DHT22;8350;52.316;10.530;2024-03-25T08:06:26;6.60;1.00
16479;DHT22;8350;52.316;10.530;2024-03-25T08:08:55;6.60;1.00
16479;DHT22;8350;52.316;10.530;2024-03-25T08:11:21;6.60;1.00
16479;DHT22;8350;52.316;10.530;2024-03-25T08:13:47;6.60;1.00
16479;DHT22;8350;52.316;10.530;2024-03-25T08:16:16;6.60;1.00
16479;DHT22;8350;52.316;10.530;2024-03-25T08:18:42;6.70;1.00
16479;DHT22;8350;52.316;10.530;2024-03-25T08:21:13;6.70;1.00
16479;DHT22;8350;52.316;10.530;2024-03-25T08:23:46;6.70;1.00
16479;DHT22;8350;52.316;10.530;2024-03-25T08:26:12;6.80;1.00
16479;DHT22;8350;52.316;10.530;2024-03-25T08:29:06;6.80;99.90
16479;DHT22;8350;52.316;10.530;2024-03-25T08:31:38;6.90;99.90
16479;DHT22;8350;52.316;10.530;2024-03-25T08:34:05;7.20;99.90
16479;DHT22;8350;52.316;10.530;2024-03-25T08:36:31;7.30;1.00
16479;DHT22;8350;52.316;10.530;2024-03-25T08:39:13;7.30;1.00
16479;DHT22;8350;52.316;10.530;2024-03-25T08:41:41;7.40;1.00
16479;DHT22;8350;52.316;10.530;2024-03-25T08:44:07;7.30;99.90
16479;DHT22;8350;52.316;10.530;2024-03-25T08:46:33;7.30;99.90
16479;DHT22;8350;52.316;10.530;2024-03-25T08:48:59;7.30;90.60
16479;DHT22;8350;52.316;10.530;2024-03-25T08:51:27;7.30;99.90
16479;DHT22;8350;52.316;10.530;2024-03-25T08:53:53;7.40;53.20
16479;DHT22;8350;52.316;10.530;2024-03-25T08:56:23;7.40;1.00
16479;DHT22;8350;52.316;10.530;2024-03-25T08:58:49;7.60;18.70
16479;DHT22;8350;52.316;10.530;2024-03-25T09:01:15;7.60;1.00
16479;DHT22;8350;52.316;10.530;2024-03-25T09:03:42;7.70;1.00
16479;DHT22;8350;52.316;10.530;2024-03-25T09:06:11;7.70;1.00
16479;DHT22;8350;52.316;10.530;2024-03-25T09:08:37;7.50;99.90
16479;DHT22;8350;52.316;10.530;2024-03-25T09:11:19;7.50;1.00
16479;DHT22;8350;52.316;10.530;2024-03-25T09:13:47;7.40;10.50
16479;DHT22;8350;52.316;10.530;2024-03-25T09:16:15;7.40;99.90
16479;DHT22;8350;52.316;10.530;2024-03-25T09:18:41;7.40;99.90
16479;DHT22;8350;52.316;10.530;2024-03-25T09:21:13;7.40;1.00
16479;DHT22;8350;52.316;10.530;2024-03-25T09:23:41;7.50;1.00
16479;DHT22;8350;52.316;10.530;2024-03-25T09:26:07;7.60;99.90
16479;DHT22;8350;52.316;10.530;2024-03-25T09:28:34;7.70;1.00
16479;DHT22;8350;52.316;10.530;2024-03-25T09:31:00;8.00;1.00
16479;DHT22;8350;52.316;10.530;2024-03-25T09:33:26;8.10;99.90
16479;DHT22;8350;52.316;10.530;2024-03-25T09:35:52;8.10;1.00
16479;DHT22;8350;52.316;10.530;2024-03-25T09:38:19;8.10;10.40
16479;DHT22;8350;52.316;10.530;2024-03-25T09:40:45;8.30;1.00
16479;DHT22;8350;52.316;10.530;2024-03-25T09:43:24;8.60;99.90
16479;DHT22;8350;52.316;10.530;2024-03-25T09:45:55;8.90;99.90
16479;DHT22;8350;52.316;10.530;2024-03-25T09:48:28;9.00;1.00
16479;DHT22;8350;52.316;10.530;2024-03-25T09:50:57;9.10;1.00
16479;DHT22;8350;52.316;10.530;2024-03-25T09:53:24;9.00;25.20
16479;DHT22;8350;52.316;10.530;2024-03-25T09:55:50;8.90;1.00
16479;DHT22;8350;52.316;10.530;2024-03-25T09:58:19;9.00;99.90
16479;DHT22;8350;52.316;10.530;2024-03-25T10:00:48;8.90;99.90
16479;DHT22;8350;52.316;10.530;2024-03-25T10:03:15;8.70;99.30
16479;DHT22;8350;52.316;10.530;2024-03-25T10:05:41;8.70;1.00
16479;DHT22;8350;52.316;10.530;2024-03-25T10:08:10;8.70;1.00
16479;DHT22;8350;52.316;10.530;2024-03-25T10:10:39;8.70;1.00
16479;DHT22;8350;52.316;10.530;2024-03-25T10:13:07;8.60;1.00
16479;DHT22;8350;52.316;10.530;2024-03-25T10:15:37;8.60;1.00
16479;DHT22;8350;52.316;10.530;2024-03-25T10:18:05;8.40;1.00
16479;DHT22;8350;52.316;10.530;2024-03-25T10:20:33;8.30;1.00
16479;DHT22;8350;52.316;10.530;2024-03-25T10:22:59;8.30;1.00
16479;DHT22;8350;52.316;10.530;2024-03-25T10:25:26;8.40;1.00
16479;DHT22;8350;52.316;10.530;2024-03-25T10:28:29;8.50;4.80
16479;DHT22;8350;52.316;10.530;2024-03-25T10:31:02;8.70;1.00
16479;DHT22;8350;52.316;10.530;2024-03-25T10:33:28;8.70;99.90
16479;DHT22;8350;52.316;10.530;2024-03-25T10:36:01;8.50;99.90
16479;DHT22;8350;52.316;10.530;2024-03-25T10:38:29;8.50;99.90
16479;DHT22;8350;52.316;10.530;2024-03-25T10:40:57;8.50;99.90
16479;DHT22;8350;52.316;10.530;2024-03-25T10:43:27;8.50;99.90
16479;DHT22;8350;52.316;10.530;2024-03-25T10:45:57;8.30;99.90
16479;DHT22;8350;52.316;10.530;2024-03-25T10:48:28;8.20;99.90
16479;DHT22;8350;52.316;10.530;2024-03-25T10:50:56;8.30;99.90
16479;DHT22;8350;52.316;10.530;2024-03-25T10:53:24;8.40;99.90
16479;DHT22;8350;52.316;10.530;2024-03-25T10:55:53;8.50;99.90
16479;DHT22;8350;52.316;10.530;2024-03-25T10:58:21;8.70;1.00
16479;DHT22;8350;52.316;10.530;2024-03-25T11:00:52;8.70;1.00
16479;DHT22;8350;52.316;10.530;2024-03-25T11:03:23;8.70;1.00
16479;DHT22;8350;52.316;10.530;2024-03-25T11:05:50;8.80;1.00
16479;DHT22;8350;52.316;10.530;2024-03-25T11:08:20;8.80;1.00
16479;DHT22;8350;52.316;10.530;2024-03-25T11:10:55;8.90;1.00
16479;DHT22;8350;52.316;10.530;2024-03-25T11:13:23;8.90;1.00
16479;DHT22;8350;52.316;10.530;2024-03-25T11:15:49;8.90;1.00
16479;DHT22;8350;52.316;10.530;2024-03-25T11:18:21;8.90;1.00
16479;DHT22;8350;52.316;10.530;2024-03-25T11:20:48;8.80;1.00
16479;DHT22;8350;52.316;10.530;2024-03-25T11:23:14;8.70;1.00
16479;DHT22;8350;52.316;10.530;2024-03-25T11:25:56;8.90;1.00
16479;DHT22;8350;52.316;10.530;2024-03-25T11:28:29;9.00;1.00
16479;DHT22;8350;52.316;10.530;2024-03-25T11:30:56;9.20;99.90
16479;DHT22;8350;52.316;10.530;2024-03-25T11:33:22;9.30;99.90
16479;DHT22;8350;52.316;10.530;2024-03-25T11:35:49;9.40;99.90
16479;DHT22;8350;52.316;10.530;2024-03-25T11:38:16;9.50;99.90
16479;DHT22;8350;52.316;10.530;2024-03-25T11:40:46;9.60;99.90
16479;DHT22;8350;52.316;10.530;2024-03-25T11:43:19;9.70;99.90
16479;DHT22;8350;52.316;10.530;2024-03-25T11:45:48;9.40;1.00
16479;DHT22;8350;52.316;10.530;2024-03-25T11:48:29;9.40;1.00
16479;DHT22;8350;52.316;10.530;2024-03-25T11:50:58;9.30;1.00
16479;DHT22;8350;52.316;10.530;2024-03-25T11:53:24;9.10;1.00
16479;DHT22;8350;52.316;10.530;2024-03-25T11:55:51;9.10;1.00
16479;DHT22;8350;52.316;10.530;2024-03-25T11:58:17;8.90;1.00
16479;DHT22;8350;52.316;10.530;2024-03-25T12:00:46;9.00;1.00
16479;DHT22;8350;52.316;10.530;2024-03-25T12:03:21;9.20;1.00
16479;DHT22;8350;52.316;10.530;2024-03-25T12:05:47;9.40;1.00
16479;DHT22;8350;52.316;10.530;2024-03-25T12:08:12;9.40;1.00
16479;DHT22;8350;52.316;10.530;2024-03-25T12:10:39;9.50;1.00
16479;DHT22;8350;52.316;10.530;2024-03-25T12:13:37;9.60;1.00
16479;DHT22;8350;52.316;10.530;2024-03-25T12:16:05;9.40;1.00
16479;DHT22;8350;52.316;10.530;2024-03-25T12:18:33;9.40;1.00
16479;DHT22;8350;52.316;10.530;2024-03-25T12:20:59;9.40;1.00
16479;DHT22;8350;52.316;10.530;2024-03-25T12:23:31;9.40;1.00
16479;DHT22;8350;52.316;10.530;2024-03-25T12:25:59;9.40;1.00
16479;DHT22;8350;52.316;10.530;2024-03-25T12:28:26;9.30;1.00
16479;DHT22;8350;52.316;10.530;2024-03-25T12:31:15;9.20;1.00
16479;DHT22;8350;52.316;10.530;2024-03-25T12:33:41;9.00;1.00
16479;DHT22;8350;52.316;10.530;2024-03-25T12:36:13;9.10;1.00
16479;DHT22;8350;52.316;10.530;2024-03-25T12:38:39;9.10;1.00
16479;DHT22;8350;52.316;10.530;2024-03-25T12:41:08;9.10;1.00
16479;DHT22;8350;52.316;10.530;2024-03-25T12:43:37;9.20;1.00
16479;DHT22;8350;52.316;10.530;2024-03-25T12:46:13;9.30;1.00
16479;DHT22;8350;52.316;10.530;2024-03-25T12:48:39;9.40;1.00
16479;DHT22;8350;52.316;10.530;2024-03-25T12:51:11;9.20;1.00
16479;DHT22;8350;52.316;10.530;2024-03-25T12:53:39;9.40;1.00
16479;DHT22;8350;52.316;10.530;2024-03-25T12:56:05;9.60;1.00
16479;DHT22;8350;52.316;10.530;2024-03-25T12:58:31;9.60;1.00
16479;DHT22;8350;52.316;10.530;2024-03-25T13:01:07;9.60;1.00
16479;DHT22;8350;52.316;10.530;2024-03-25T13:03:38;9.60;1.00
16479;DHT22;8350;52.316;10.530;2024-03-25T13:06:07;9.70;1.00
16479;DHT22;8350;52.316;10.530;2024-03-25T13:08:33;9.70;1.00
16479;DHT22;8350;52.316;10.530;2024-03-25T13:10:59;9.80;1.00
16479;DHT22;8350;52.316;10.530;2024-03-25T13:13:27;9.60;1.00
16479;DHT22;8350;52.316;10.530;2024-03-25T13:15:57;9.80;1.00
16479;DHT22;8350;52.316;10.530;2024-03-25T13:18:23;9.80;1.00
16479;DHT22;8350;52.316;10.530;2024-03-25T13:20:50;10.00;1.00
16479;DHT22;8350;52.316;10.530;2024-03-25T13:23:44;10.10;1.00
16479;DHT22;8350;52.316;10.530;2024-03-25T13:26:10;10.10;1.00
16479;DHT22;8350;52.316;10.530;2024-03-25T13:28:49;10.20;1.00
16479;DHT22;8350;52.316;10.530;2024-03-25T13:31:29;10.10;1.00
16479;DHT22;8350;52.316;10.530;2024-03-25T13:33:54;10.20;1.00
16479;DHT22;8350;52.316;10.530;2024-03-25T13:36:22;10.30;1.00
16479;DHT22;8350;52.316;10.530;2024-03-25T13:38:51;10.40;1.00
16479;DHT22;8350;52.316;10.530;2024-03-25T13:41:19;10.50;1.00
16479;DHT22;8350;52.316;10.530;2024-03-25T13:43:45;10.80;1.00
16479;DHT22;8350;52.316;10.530;2024-03-25T13:46:12;10.70;1.00
16479;DHT22;8350;52.316;10.530;2024-03-25T13:48:46;10.80;1.00
16479;DHT22;8350;52.316;10.530;2024-03-25T13:51:18;10.80;1.00
16479;DHT22;8350;52.316;10.530;2024-03-25T13:53:48;10.70;1.00
16479;DHT22;8350;52.316;10.530;2024-03-25T13:56:18;10.60;1.00
16479;DHT22;8350;52.316;10.530;2024-03-25T13:58:44;10.70;1.00
16479;DHT22;8350;52.316;10.530;2024-03-25T14:01:24;10.90;1.00
16479;DHT22;8350;52.316;10.530;2024-03-25T14:03:50;11.00;1.00
16479;DHT22;8350;52.316;10.530;2024-03-25T14:06:16;11.20;1.00
16479;DHT22;8350;52.316;10.530;2024-03-25T14:08:45;11.30;1.00
16479;DHT22;8350;52.316;10.530;2024-03-25T14:11:11;11.30;1.00
16479;DHT22;8350;52.316;10.530;2024-03-25T14:13:37;11.00;1.00
16479;DHT22;8350;52.316;10.530;2024-03-25T14:16:03;10.80;1.00
16479;DHT22;8350;52.316;10.530;2024-03-25T14:18:29;10.90;1.00
16479;DHT22;8350;52.316;10.530;2024-03-25T14:20:56;10.80;1.00
16479;DHT22;8350;52.316;10.530;2024-03-25T14:23:22;10.90;1.00
16479;DHT22;8350;52.316;10.530;2024-03-25T14:25:50;10.90;1.00
16479;DHT22;8350;52.316;10.530;2024-03-25T14:28:17;10.90;1.00
16479;DHT22;8350;52.316;10.530;2024-03-25T14:30:43;11.00;1.00
16479;DHT22;8350;52.316;10.530;2024-03-25T14:33:09;11.20;1.00
16479;DHT22;8350;52.316;10.530;2024-03-25T14:35:37;11.30;1.00
16479;DHT22;8350;52.316;10.530;2024-03-25T14:38:03;11.30;1.00
16479;DHT22;8350;52.316;10.530;2024-03-25T14:40:29;11.30;1.00
16479;DHT22;8350;52.316;10.530;2024-03-25T14:42:59;11.30;1.00
16479;DHT22;8350;52.316;10.530;2024-03-25T14:45:27;11.40;1.00
16479;DHT22;8350;52.316;10.530;2024-03-25T14:47:53;11.40;1.00
16479;DHT22;8350;52.316;10.530;2024-03-25T14:50:21;11.30;1.00
16479;DHT22;8350;52.316;10.530;2024-03-25T14:52:50;10.90;1.00
16479;DHT22;8350;52.316;10.530;2024-03-25T14:55:18;10.80;1.00
16479;DHT22;8350;52.316;10.530;2024-03-25T14:57:44;10.70;1.00
16479;DHT22;8350;52.316;10.530;2024-03-25T15:00:26;10.80;1.00
16479;DHT22;8350;52.316;10.530;2024-03-25T15:02:56;10.50;1.00
16479;DHT22;8350;52.316;10.530;2024-03-25T15:05:22;10.50;1.00
16479;DHT22;8350;52.316;10.530;2024-03-25T15:07:48;10.30;1.00
16479;DHT22;8350;52.316;10.530;2024-03-25T15:10:16;10.00;1.00
16479;DHT22;8350;52.316;10.530;2024-03-25T15:12:41;9.90;1.00
16479;DHT22;8350;52.316;10.530;2024-03-25T15:15:11;9.80;1.00
16479;DHT22;8350;52.316;10.530;2024-03-25T15:17:38;9.80;1.00
16479;DHT22;8350;52.316;10.530;2024-03-25T15:20:08;9.70;1.00
16479;DHT22;8350;52.316;10.530;2024-03-25T15:22:36;9.60;1.00
16479;DHT22;8350;52.316;10.530;2024-03-25T15:25:02;9.60;1.00
16479;DHT22;8350;52.316;10.530;2024-03-25T15:27:29;9.70;1.00
16479;DHT22;8350;52.316;10.530;2024-03-25T15:29:54;9.60;1.00
16479;DHT22;8350;52.316;10.530;2024-03-25T15:32:20;9.40;1.00
16479;DHT22;8350;52.316;10.530;2024-03-25T15:34:48;9.30;1.00
16479;DHT22;8350;52.316;10.530;2024-03-25T15:37:13;9.30;1.00
16479;DHT22;8350;52.316;10.530;2024-03-25T15:39:42;9.20;1.00
16479;DHT22;8350;52.316;10.530;2024-03-25T15:42:08;9.30;1.00
16479;DHT22;8350;52.316;10.530;2024-03-25T15:44:44;9.30;1.00
16479;DHT22;8350;52.316;10.530;2024-03-25T15:47:13;9.40;1.00
16479;DHT22;8350;52.316;10.530;2024-03-25T15:49:49;9.50;1.00
16479;DHT22;8350;52.316;10.530;2024-03-25T15:52:15;9.60;1.00
16479;DHT22;8350;52.316;10.530;2024-03-25T15:54:44;9.70;1.00
16479;DHT22;8350;52.316;10.530;2024-03-25T15:57:10;9.70;1.00
16479;DHT22;8350;52.316;10.530;2024-03-25T15:59:38;9.80;1.00